Terminal Aerodrome Forecast
Issued by NWS

Home | Current Version | Previous Version | Text Only | Print | Product List | Glossary On
Versions: 1 2 3 4 5 6 7 8 9 10 11 12 13 14 15 16 17 18 19 20
000
FTUS44 KTSA 020500
TAFMLC
TAF
KMLC 020537Z 0206/0306 01006KT P6SM SCT010 OVC035
      TEMPO 0206/0210 5SM BR BKN010
     FM021000 01006KT 4SM BR OVC007
     FM021600 05005KT 5SM BR OVC007
     FM030000 12003KT 5SM BR OVC007=

USA.gov is the U.S. government's official web portal to all federal, state and local government web resources and services.